Time;durP1;ratioP1;P1;durP2;ratioP2;P2;SDS_P1;SDS_P2;PMS_P1;PMS_P2;Temp;Humidity;BMP_temperature;BMP_pressure;BME280_temperature;BME280_humidity;BME280_pressure;Samples;Min_cycle;Max_cycle;Signal;HPM_P1;HPM_P2
2021/07/05 00:02:17;;;;;;;0.93;0.90;;;19.80;99.90;;;;;;5054244;28;20021;-79
2021/07/05 00:04:43;;;;;;;2.97;0.80;;;19.80;99.90;;;;;;5054152;28;20116;-79
2021/07/05 00:07:10;;;;;;;1.10;1.00;;;19.80;99.90;;;;;;5053885;28;20120;-79
2021/07/05 00:09:36;;;;;;;1.95;0.80;;;19.90;99.90;;;;;;5053557;28;20025;-79
2021/07/05 00:12:03;;;;;;;2.25;0.52;;;19.80;99.90;;;;;;5053992;28;20075;-79
2021/07/05 00:14:29;;;;;;;0.50;0.50;;;19.90;99.90;;;;;;5055395;28;20045;-79
2021/07/05 00:16:55;;;;;;;1.02;0.75;;;19.90;99.90;;;;;;5053962;28;20067;-78
2021/07/05 00:19:21;;;;;;;0.90;0.90;;;19.80;99.90;;;;;;5053716;28;20025;-79
2021/07/05 00:21:47;;;;;;;3.90;0.73;;;19.80;99.90;;;;;;5053977;28;20029;-79
2021/07/05 00:24:13;;;;;;;0.82;0.82;;;19.80;99.90;;;;;;5055068;28;20025;-79
2021/07/05 00:26:39;;;;;;;1.27;0.65;;;19.70;99.90;;;;;;5053766;28;20036;-79
2021/07/05 00:29:04;;;;;;;1.27;1.17;;;19.70;99.90;;;;;;5052153;28;20483;-79
2021/07/05 00:31:30;;;;;;;0.93;0.93;;;19.60;99.90;;;;;;5053705;28;20025;-79
2021/07/05 00:33:56;;;;;;;1.42;0.85;;;19.50;99.90;;;;;;5053688;28;20048;-79
2021/07/05 00:36:22;;;;;;;2.83;1.00;;;19.50;99.90;;;;;;5054942;28;20029;-79
2021/07/05 00:38:47;;;;;;;0.70;0.70;;;19.50;99.90;;;;;;5050823;28;20390;-79
2021/07/05 00:41:13;;;;;;;0.88;0.88;;;19.50;99.90;;;;;;5050068;28;20033;-79
2021/07/05 00:43:39;;;;;;;0.80;0.80;;;19.40;99.90;;;;;;5048966;28;20036;-78
2021/07/05 00:46:05;;;;;;;0.80;0.80;;;19.50;99.90;;;;;;5051245;28;20387;-80
2021/07/05 00:48:30;;;;;;;0.90;0.90;;;19.40;99.90;;;;;;5048110;28;20466;-79
2021/07/05 00:50:56;;;;;;;0.80;0.80;;;19.40;99.90;;;;;;5050560;28;20028;-78
2021/07/05 00:53:22;;;;;;;0.70;0.70;;;19.30;99.90;;;;;;5050574;28;20037;-78
2021/07/05 00:55:49;;;;;;;0.88;0.88;;;19.10;99.90;;;;;;5050890;28;20044;-79
2021/07/05 00:58:15;;;;;;;1.05;1.05;;;19.10;99.90;;;;;;5048440;28;20082;-78
2021/07/05 01:00:41;;;;;;;0.73;0.73;;;19.20;99.90;;;;;;5050977;28;20032;-79
2021/07/05 01:03:06;;;;;;;0.70;0.70;;;19.20;99.90;;;;;;5049449;28;20031;-78
2021/07/05 01:05:33;;;;;;;1.05;1.05;;;19.30;99.90;;;;;;5050590;28;20024;-78
2021/07/05 01:07:59;;;;;;;1.20;1.10;;;19.30;99.90;;;;;;5049191;28;20041;-79
2021/07/05 01:10:26;;;;;;;1.50;1.50;;;19.40;99.90;;;;;;5049747;28;20432;-79
2021/07/05 01:12:54;;;;;;;1.48;1.48;;;19.20;99.90;;;;;;5030154;28;20041;-78
2021/07/05 01:15:23;;;;;;;5.68;1.30;;;19.10;99.90;;;;;;5030886;28;20048;-79
2021/07/05 01:17:49;;;;;;;1.20;1.20;;;19.20;99.90;;;;;;5028325;28;20022;-79
2021/07/05 01:20:19;;;;;;;1.20;1.20;;;19.20;99.90;;;;;;5049616;28;20028;-79
2021/07/05 01:22:45;;;;;;;1.10;1.10;;;19.20;99.90;;;;;;5049147;28;20433;-79
2021/07/05 01:25:14;;;;;;;1.20;1.20;;;19.20;99.90;;;;;;5051718;28;20017;-79
2021/07/05 01:27:40;;;;;;;1.30;1.27;;;19.20;99.90;;;;;;5047662;28;20033;-79
2021/07/05 01:30:07;;;;;;;2.60;1.40;;;19.10;99.90;;;;;;5051123;28;20032;-80
2021/07/05 01:32:33;;;;;;;2.53;1.35;;;19.10;99.90;;;;;;5047704;28;20033;-79
2021/07/05 01:34:59;;;;;;;1.50;1.40;;;19.10;99.90;;;;;;5051279;28;20159;-80
2021/07/05 01:37:25;;;;;;;1.63;1.52;;;19.10;99.90;;;;;;5049723;28;20029;-79
2021/07/05 01:39:51;;;;;;;1.60;1.50;;;19.10;99.90;;;;;;5049527;28;20662;-79
2021/07/05 01:42:19;;;;;;;2.10;1.55;;;19.00;99.90;;;;;;5034247;28;20040;-79
2021/07/05 01:44:46;;;;;;;1.75;1.65;;;19.00;99.90;;;;;;5031581;28;20017;-79
2021/07/05 01:47:11;;;;;;;1.90;1.80;;;19.10;99.90;;;;;;5028218;28;20428;-79
2021/07/05 01:49:39;;;;;;;3.85;1.60;;;18.90;99.90;;;;;;5048771;28;20108;-79
2021/07/05 01:52:05;;;;;;;2.13;2.03;;;19.00;99.90;;;;;;5048305;28;20013;-79
2021/07/05 01:54:31;;;;;;;2.00;1.90;;;19.00;99.90;;;;;;5051073;28;20065;-80
2021/07/05 01:56:57;;;;;;;1.65;1.50;;;19.00;99.90;;;;;;5052726;28;20553;-79
2021/07/05 01:59:23;;;;;;;1.30;1.30;;;19.00;99.90;;;;;;5052758;28;20028;-80
2021/07/05 02:01:49;;;;;;;1.80;1.23;;;19.00;99.90;;;;;;5052971;28;20029;-80
2021/07/05 02:04:15;;;;;;;2.83;1.25;;;19.00;99.90;;;;;;5051657;28;20037;-79
2021/07/05 02:06:41;;;;;;;3.05;1.15;;;19.00;99.90;;;;;;5051669;28;20025;-79
2021/07/05 02:09:08;;;;;;;1.40;1.30;;;19.00;99.90;;;;;;5052671;28;20102;-80
2021/07/05 02:11:35;;;;;;;1.00;1.00;;;19.00;99.90;;;;;;5051580;28;20086;-80
2021/07/05 02:14:04;;;;;;;1.10;0.77;;;19.00;99.90;;;;;;5052661;28;20025;-80
2021/07/05 02:16:30;;;;;;;0.98;0.98;;;19.00;99.90;;;;;;5052765;28;20036;-79
2021/07/05 02:18:56;;;;;;;0.75;0.75;;;18.90;99.90;;;;;;5052620;28;20025;-80
2021/07/05 02:21:21;;;;;;;3.35;0.75;;;18.90;99.90;;;;;;5053036;28;20029;-79
2021/07/05 02:23:47;;;;;;;1.02;0.68;;;18.80;99.90;;;;;;5051836;28;20067;-80
2021/07/05 02:26:13;;;;;;;0.70;0.70;;;18.90;99.90;;;;;;5051130;28;20052;-79
2021/07/05 02:28:39;;;;;;;2.30;0.90;;;18.80;99.90;;;;;;5051924;28;20032;-79
2021/07/05 02:31:07;;;;;;;0.70;0.70;;;18.90;99.90;;;;;;5051891;28;20018;-79
2021/07/05 02:33:34;;;;;;;0.88;0.88;;;18.90;99.90;;;;;;5052121;28;20017;-80
2021/07/05 02:36:04;;;;;;;1.60;1.50;;;18.80;99.90;;;;;;5050898;28;20036;-79
2021/07/05 02:38:31;;;;;;;1.33;1.23;;;19.00;99.90;;;;;;5051807;28;20032;-79
2021/07/05 02:40:58;;;;;;;1.55;1.45;;;19.00;99.90;;;;;;5050716;28;20039;-80
2021/07/05 02:43:24;;;;;;;4.82;1.90;;;19.00;99.90;;;;;;5051938;28;20086;-79
2021/07/05 02:45:54;;;;;;;1.98;1.70;;;19.10;99.90;;;;;;5050600;28;20148;-79
2021/07/05 02:48:23;;;;;;;1.80;1.73;;;19.20;99.90;;;;;;5051136;28;20029;-79
2021/07/05 02:50:55;;;;;;;2.65;2.35;;;19.10;99.90;;;;;;5050323;28;20075;-79
2021/07/05 02:53:22;;;;;;;2.10;2.00;;;19.10;99.90;;;;;;5054511;28;20144;-79
2021/07/05 02:55:48;;;;;;;2.03;1.92;;;19.10;99.90;;;;;;5055373;28;20025;-79
2021/07/05 02:58:15;;;;;;;1.90;1.80;;;19.10;99.90;;;;;;5055064;28;20028;-79
2021/07/05 03:00:45;;;;;;;2.17;2.08;;;19.10;99.90;;;;;;5056563;28;20107;-79
2021/07/05 03:03:11;;;;;;;2.08;1.98;;;19.20;99.90;;;;;;5056474;28;20025;-79
2021/07/05 03:05:37;;;;;;;2.00;1.85;;;19.10;99.90;;;;;;5055134;28;20102;-79
2021/07/05 03:08:04;;;;;;;2.67;2.25;;;19.10;99.90;;;;;;5054929;28;20116;-79
2021/07/05 03:10:33;;;;;;;2.40;2.30;;;19.00;99.90;;;;;;5055163;28;20079;-79
2021/07/05 03:12:59;;;;;;;2.00;1.90;;;18.90;99.90;;;;;;5054883;28;20028;-78
2021/07/05 03:15:25;;;;;;;1.98;1.88;;;19.00;99.90;;;;;;5055124;28;20115;-78
2021/07/05 03:17:52;;;;;;;2.70;2.03;;;19.00;99.90;;;;;;5055845;28;20051;-79
2021/07/05 03:20:20;;;;;;;2.38;2.28;;;18.90;99.90;;;;;;5054929;28;20506;-79
2021/07/05 03:22:48;;;;;;;2.38;2.25;;;18.90;99.90;;;;;;5055029;28;20021;-79
2021/07/05 03:25:16;;;;;;;1.80;1.70;;;18.90;99.90;;;;;;5054921;28;20053;-79
2021/07/05 03:27:42;;;;;;;2.13;2.03;;;18.90;99.90;;;;;;5055844;28;20036;-79
2021/07/05 03:30:09;;;;;;;2.33;2.22;;;18.80;99.90;;;;;;5055999;28;20028;-79
2021/07/05 03:32:36;;;;;;;2.53;2.40;;;18.90;99.90;;;;;;5054775;28;20056;-79
2021/07/05 03:35:04;;;;;;;2.10;2.00;;;18.80;99.90;;;;;;5056083;28;20021;-79
2021/07/05 03:37:30;;;;;;;2.17;2.08;;;18.80;99.90;;;;;;5055822;28;20025;-80
2021/07/05 03:39:56;;;;;;;1.77;1.67;;;18.80;99.90;;;;;;5054163;28;20087;-79
2021/07/05 03:42:22;;;;;;;2.15;2.05;;;18.80;99.90;;;;;;5040400;28;20056;-79
2021/07/05 03:44:47;;;;;;;2.70;2.28;;;18.80;99.90;;;;;;5035980;28;20036;-79
2021/07/05 03:47:13;;;;;;;2.47;2.20;;;18.70;99.90;;;;;;5044015;28;20036;-79
2021/07/05 03:49:40;;;;;;;2.67;2.00;;;18.70;99.90;;;;;;5055380;28;20035;-79
2021/07/05 03:52:07;;;;;;;4.65;2.00;;;18.70;99.90;;;;;;5055558;28;20499;-79
2021/07/05 03:54:32;;;;;;;2.53;2.42;;;18.60;99.90;;;;;;5054300;28;20510;-79
2021/07/05 03:56:58;;;;;;;2.60;2.40;;;18.60;99.90;;;;;;5054307;28;20025;-79
2021/07/05 03:59:25;;;;;;;2.20;1.90;;;18.70;99.90;;;;;;5053955;28;20033;-79
2021/07/05 04:01:51;;;;;;;2.28;2.17;;;18.70;99.90;;;;;;5054078;28;20033;-78
2021/07/05 04:04:17;;;;;;;2.15;2.03;;;18.70;99.90;;;;;;5054014;28;20042;-79
2021/07/05 04:06:43;;;;;;;2.00;1.90;;;18.60;99.90;;;;;;5055115;28;20032;-79
2021/07/05 04:09:09;;;;;;;2.30;2.10;;;18.60;99.90;;;;;;5055116;28;20028;-79
2021/07/05 04:11:35;;;;;;;1.85;1.75;;;18.60;99.90;;;;;;5055421;28;20081;-79
2021/07/05 04:14:01;;;;;;;2.50;2.30;;;18.60;99.90;;;;;;5054084;28;20056;-79
2021/07/05 04:16:27;;;;;;;2.40;2.30;;;18.70;99.90;;;;;;5055335;28;20049;-79
2021/07/05 04:18:52;;;;;;;2.13;2.03;;;18.60;99.90;;;;;;5054809;28;20471;-79
2021/07/05 04:21:20;;;;;;;1.80;1.70;;;18.60;99.90;;;;;;5055200;28;20050;-79
2021/07/05 04:23:47;;;;;;;2.00;1.90;;;18.60;99.90;;;;;;5055097;28;20025;-78
2021/07/05 04:26:14;;;;;;;2.95;2.50;;;18.60;99.90;;;;;;5053748;28;20086;-79
2021/07/05 04:28:40;;;;;;;3.00;2.80;;;18.60;99.90;;;;;;5053166;28;20040;-79
2021/07/05 04:31:06;;;;;;;2.78;2.17;;;18.60;99.90;;;;;;5055010;28;20013;-78
2021/07/05 04:33:31;;;;;;;2.70;2.50;;;18.60;99.90;;;;;;5053769;28;20048;-79
2021/07/05 04:35:57;;;;;;;3.33;3.13;;;18.60;99.90;;;;;;5053576;28;20472;-79
2021/07/05 04:38:23;;;;;;;4.03;2.58;;;18.60;99.90;;;;;;5053193;28;20048;-79
2021/07/05 04:40:49;;;;;;;2.67;2.47;;;18.70;99.90;;;;;;5066547;28;20445;-79
2021/07/05 04:43:16;;;;;;;2.75;2.58;;;18.80;99.90;;;;;;5074829;28;20112;-78
2021/07/05 04:45:44;;;;;;;3.10;2.78;;;18.80;99.90;;;;;;5073417;28;20394;-79
2021/07/05 04:48:11;;;;;;;3.20;2.85;;;18.80;99.90;;;;;;5069234;28;20018;-79
2021/07/05 04:50:37;;;;;;;4.32;2.70;;;19.00;99.90;;;;;;5054504;28;20013;-78
2021/07/05 04:53:04;;;;;;;3.38;3.17;;;19.00;99.90;;;;;;5054492;28;20136;-79
2021/07/05 04:55:30;;;;;;;3.58;3.38;;;19.10;99.90;;;;;;5054005;28;20029;-79
2021/07/05 04:57:56;;;;;;;3.60;3.40;;;19.10;99.90;;;;;;5053966;28;20021;-79
2021/07/05 05:00:31;;;;;;;3.15;2.85;;;19.20;99.90;;;;;;5053837;28;20380;-79
2021/07/05 05:02:57;;;;;;;5.47;3.65;;;19.30;99.90;;;;;;5054251;28;20021;-79
2021/07/05 05:05:23;;;;;;;4.32;1.60;;;19.30;99.90;;;;;;5053926;28;20066;-79
2021/07/05 05:07:50;;;;;;;0.40;0.40;;;19.50;99.90;;;;;;5052858;28;20025;-79
2021/07/05 05:10:18;;;;;;;0.30;0.30;;;19.70;99.90;;;;;;5052833;28;20101;-79
2021/07/05 05:12:44;;;;;;;0.25;0.25;;;19.90;99.90;;;;;;5054186;28;20032;-79
2021/07/05 05:15:11;;;;;;;2.08;0.20;;;20.10;99.90;;;;;;5052239;28;20175;-78
2021/07/05 05:17:37;;;;;;;0.20;0.20;;;20.20;99.90;;;;;;5053778;28;20410;-78
2021/07/05 05:20:05;;;;;;;0.20;0.20;;;20.40;99.90;;;;;;5052329;28;20102;-78
2021/07/05 05:22:31;;;;;;;0.28;0.28;;;20.50;99.90;;;;;;5053955;28;20031;-79
2021/07/05 05:24:57;;;;;;;0.35;0.25;;;20.60;99.90;;;;;;5052571;28;20025;-79
2021/07/05 05:27:22;;;;;;;0.20;0.20;;;20.70;99.80;;;;;;5053867;28;20075;-78
2021/07/05 05:29:48;;;;;;;1.65;0.20;;;20.80;99.50;;;;;;5053475;28;20029;-78
2021/07/05 05:32:14;;;;;;;0.10;0.10;;;20.90;98.90;;;;;;5053605;28;20106;-78
2021/07/05 05:34:40;;;;;;;0.20;0.20;;;20.90;98.90;;;;;;5053753;28;20020;-78
2021/07/05 05:37:06;;;;;;;0.30;0.30;;;21.00;98.60;;;;;;5053787;28;20483;-78
2021/07/05 05:39:31;;;;;;;0.20;0.20;;;21.00;98.60;;;;;;5053723;28;20029;-78
2021/07/05 05:41:57;;;;;;;0.10;0.10;;;21.10;97.30;;;;;;5051894;28;20036;-78
2021/07/05 05:44:23;;;;;;;0.20;0.20;;;21.20;98.10;;;;;;5052426;28;20036;-78
2021/07/05 05:46:49;;;;;;;0.17;0.17;;;21.30;97.10;;;;;;5053570;28;20112;-78
2021/07/05 05:49:14;;;;;;;0.20;0.20;;;21.30;96.40;;;;;;5051742;28;20055;-78
2021/07/05 05:51:40;;;;;;;6.13;0.28;;;21.30;95.80;;;;;;5052125;28;20029;-78
2021/07/05 05:54:09;;;;;;;0.10;0.10;;;21.40;95.60;;;;;;5052196;28;20407;-78
2021/07/05 05:56:37;;;;;;;2.83;0.25;;;21.40;95.90;;;;;;5053423;28;20083;-78
2021/07/05 05:59:06;;;;;;;1.73;0.30;;;21.40;95.80;;;;;;5053254;28;20636;-78
2021/07/05 06:01:38;;;;;;;4.90;1.27;;;21.50;97.60;;;;;;5052952;28;20550;-78
2021/07/05 06:04:04;;;;;;;2.28;2.17;;;21.50;99.90;;;;;;5053404;28;20031;-78
2021/07/05 06:06:30;;;;;;;3.50;3.20;;;21.40;99.90;;;;;;5053159;28;20068;-78
2021/07/05 06:08:55;;;;;;;2.72;2.53;;;21.40;99.90;;;;;;5053137;28;20423;-78
2021/07/05 06:11:21;;;;;;;1.08;1.00;;;21.40;99.90;;;;;;5052870;28;20021;-78
2021/07/05 06:13:48;;;;;;;0.40;0.40;;;21.40;99.90;;;;;;5051861;28;20467;-78
2021/07/05 06:16:15;;;;;;;5.15;0.20;;;21.50;99.20;;;;;;5052355;28;20032;-78
2021/07/05 06:18:42;;;;;;;0.10;0.10;;;21.70;95.00;;;;;;5052136;28;20032;-78
2021/07/05 06:21:08;;;;;;;0.20;0.20;;;21.90;95.10;;;;;;5051390;28;20119;-78
2021/07/05 06:23:34;;;;;;;0.30;0.30;;;22.00;94.60;;;;;;5052684;28;20029;-78
2021/07/05 06:26:01;;;;;;;2.13;0.22;;;22.10;92.60;;;;;;5052187;28;20055;-78
2021/07/05 06:28:29;;;;;;;0.10;0.10;;;22.20;91.60;;;;;;5052761;28;20024;-77
2021/07/05 06:30:57;;;;;;;0.90;0.88;;;22.30;91.50;;;;;;5052734;28;20471;-78
2021/07/05 06:33:22;;;;;;;4.68;3.40;;;22.30;95.30;;;;;;5052657;28;20073;-78
2021/07/05 06:35:49;;;;;;;8.77;5.07;;;22.20;99.90;;;;;;5052585;28;20060;-78
2021/07/05 06:38:17;;;;;;;7.07;5.45;;;22.20;99.90;;;;;;5052937;28;20052;-78
2021/07/05 06:40:44;;;;;;;6.55;4.93;;;22.00;99.90;;;;;;5052589;28;20029;-78
2021/07/05 06:43:12;;;;;;;7.35;4.20;;;21.90;99.90;;;;;;5051302;28;20483;-78
2021/07/05 06:45:38;;;;;;;4.80;4.38;;;21.90;99.90;;;;;;5052654;28;20028;-77
2021/07/05 06:48:04;;;;;;;4.53;4.13;;;22.00;99.90;;;;;;5052456;28;20025;-77
2021/07/05 06:50:30;;;;;;;3.92;3.50;;;22.00;99.90;;;;;;5055357;28;20029;-77
2021/07/05 06:52:56;;;;;;;4.38;4.07;;;22.00;99.90;;;;;;5052528;28;20131;-77
2021/07/05 06:55:25;;;;;;;6.25;4.63;;;22.10;99.90;;;;;;5052848;28;20032;-77
2021/07/05 06:57:51;;;;;;;4.90;4.43;;;22.10;99.90;;;;;;5052669;28;20025;-77
2021/07/05 07:00:26;;;;;;;5.22;4.80;;;22.00;99.90;;;;;;5049597;28;20082;-78
2021/07/05 07:02:53;;;;;;;4.70;4.30;;;22.00;99.90;;;;;;5048860;28;20025;-77
2021/07/05 07:05:20;;;;;;;3.20;2.95;;;22.00;99.90;;;;;;5049738;28;20151;-77
2021/07/05 07:07:48;;;;;;;3.60;3.33;;;22.00;99.90;;;;;;5051447;28;20033;-77
2021/07/05 07:10:16;;;;;;;4.22;3.42;;;22.10;99.90;;;;;;5051721;28;20106;-78
2021/07/05 07:12:46;;;;;;;3.33;2.90;;;22.10;99.90;;;;;;5050528;28;20024;-77
2021/07/05 07:15:14;;;;;;;4.28;3.72;;;22.10;99.90;;;;;;5046133;28;20671;-78
2021/07/05 07:17:45;;;;;;;3.83;3.35;;;22.10;99.90;;;;;;5050602;28;20116;-78
2021/07/05 07:20:12;;;;;;;3.50;3.22;;;22.10;99.90;;;;;;5050482;28;20029;-78
2021/07/05 07:22:39;;;;;;;4.28;3.42;;;22.10;99.90;;;;;;5051919;28;20021;-78
2021/07/05 07:25:07;;;;;;;6.32;3.53;;;22.20;99.90;;;;;;5051932;28;20549;-78
2021/07/05 07:27:33;;;;;;;9.20;4.82;;;22.30;99.90;;;;;;5051458;28;20368;-77
2021/07/05 07:29:59;;;;;;;5.18;4.78;;;22.30;99.90;;;;;;5051770;28;20032;-78
2021/07/05 07:32:25;;;;;;;6.78;5.85;;;22.30;99.90;;;;;;5051131;28;20021;-78
2021/07/05 07:34:51;;;;;;;14.50;5.43;;;22.30;99.90;;;;;;5050383;28;20412;-77
2021/07/05 07:37:17;;;;;;;6.53;5.78;;;22.30;99.90;;;;;;5052066;28;20051;-78
2021/07/05 07:39:45;;;;;;;6.07;5.38;;;22.30;99.90;;;;;;5055528;28;20036;-78
2021/07/05 07:42:11;;;;;;;9.00;7.07;;;22.40;99.90;;;;;;5054073;28;20116;-77
2021/07/05 07:44:37;;;;;;;14.45;8.00;;;22.50;99.90;;;;;;5046797;28;20112;-78
2021/07/05 07:47:04;;;;;;;10.27;8.60;;;22.40;99.90;;;;;;5055296;28;20021;-78
2021/07/05 07:49:31;;;;;;;13.68;9.23;;;22.50;99.90;;;;;;5055105;28;20021;-78
2021/07/05 07:52:01;;;;;;;18.20;10.23;;;22.50;99.90;;;;;;5052771;28;20021;-78
2021/07/05 07:54:27;;;;;;;11.05;8.95;;;22.60;99.90;;;;;;5055244;28;20504;-77
2021/07/05 07:56:53;;;;;;;16.42;10.40;;;22.60;99.90;;;;;;5055046;28;20033;-78
2021/07/05 07:59:20;;;;;;;13.95;10.60;;;22.60;99.90;;;;;;5054917;28;20494;-78
2021/07/05 08:01:47;;;;;;;14.15;10.57;;;22.70;99.90;;;;;;5054600;28;20024;-77
2021/07/05 08:04:13;;;;;;;16.25;11.23;;;22.70;99.90;;;;;;5052062;28;20059;-77
2021/07/05 08:06:39;;;;;;;16.80;11.85;;;22.70;99.90;;;;;;5051796;28;20029;-78
2021/07/05 08:09:07;;;;;;;15.50;10.55;;;22.80;99.90;;;;;;5053212;28;20025;-77
2021/07/05 08:11:34;;;;;;;15.15;11.73;;;22.90;99.90;;;;;;5053936;28;20028;-78
2021/07/05 08:14:02;;;;;;;13.75;10.23;;;22.90;99.90;;;;;;5053029;28;20537;-77
2021/07/05 08:16:29;;;;;;;13.75;10.52;;;22.90;99.90;;;;;;5054039;28;20029;-77
2021/07/05 08:18:55;;;;;;;13.55;10.57;;;22.90;99.90;;;;;;5054093;28;20104;-77
2021/07/05 08:21:22;;;;;;;16.88;10.88;;;23.00;99.90;;;;;;5053531;28;20056;-78
2021/07/05 08:23:47;;;;;;;16.38;11.43;;;23.10;99.90;;;;;;5052792;28;20095;-77
2021/07/05 08:26:14;;;;;;;14.30;11.38;;;23.10;99.90;;;;;;5052175;28;20127;-78
2021/07/05 08:28:40;;;;;;;13.63;10.00;;;23.10;99.90;;;;;;5054341;28;20383;-78
2021/07/05 08:31:07;;;;;;;11.88;9.77;;;23.20;99.90;;;;;;5054513;28;20407;-77
2021/07/05 08:33:34;;;;;;;12.60;9.25;;;23.30;99.90;;;;;;5054376;28;20536;-78
2021/07/05 08:36:01;;;;;;;14.27;9.45;;;23.30;99.90;;;;;;5054104;28;20032;-78
2021/07/05 08:38:28;;;;;;;11.82;8.05;;;23.40;99.90;;;;;;5052886;28;20111;-78
2021/07/05 08:40:58;;;;;;;11.05;8.10;;;23.50;99.90;;;;;;5050726;28;20394;-77
2021/07/05 08:43:27;;;;;;;13.20;9.00;;;23.70;99.90;;;;;;5052882;28;20037;-78
2021/07/05 08:45:57;;;;;;;8.38;7.55;;;23.80;99.90;;;;;;5054252;28;20390;-77
2021/07/05 08:48:27;;;;;;;18.02;9.80;;;23.90;99.90;;;;;;5053855;28;20025;-78
2021/07/05 08:50:52;;;;;;;11.60;9.23;;;23.90;99.90;;;;;;5053086;28;20013;-78
2021/07/05 08:53:18;;;;;;;12.20;9.50;;;23.90;99.90;;;;;;5054071;28;20656;-78
2021/07/05 08:55:44;;;;;;;12.93;10.38;;;24.00;99.90;;;;;;5052635;28;20044;-78
2021/07/05 08:58:10;;;;;;;12.52;8.93;;;24.10;99.90;;;;;;5057699;28;20389;-78
2021/07/05 09:00:36;;;;;;;12.43;9.40;;;24.10;99.90;;;;;;5054925;28;20035;-78
2021/07/05 09:03:02;;;;;;;12.43;8.98;;;24.10;99.90;;;;;;5057714;28;20024;-78
2021/07/05 09:05:29;;;;;;;10.77;8.52;;;24.20;99.90;;;;;;5059530;28;20474;-78
2021/07/05 09:08:09;;;;;;;16.17;9.65;;;24.20;99.90;;;;;;5053482;28;20059;-78
2021/07/05 09:10:44;;;;;;;17.50;10.00;;;24.30;99.90;;;;;;5053995;28;20020;-78
2021/07/05 09:13:25;;;;;;;12.50;9.73;;;24.30;99.90;;;;;;5044987;28;20120;-78
2021/07/05 09:15:59;;;;;;;13.13;9.57;;;24.40;99.90;;;;;;5053608;28;20028;-78
2021/07/05 09:18:47;;;;;;;14.25;10.07;;;24.40;99.90;;;;;;5053657;28;20044;-78
2021/07/05 09:21:24;;;;;;;15.23;10.25;;;24.50;99.90;;;;;;5049900;28;20602;-78
2021/07/05 09:24:01;;;;;;;15.77;11.02;;;24.60;99.90;;;;;;5052713;28;20498;-78
2021/07/05 09:26:37;;;;;;;18.05;10.75;;;24.60;99.90;;;;;;5052800;28;20056;-78
2021/07/05 09:29:23;;;;;;;13.63;9.18;;;24.60;99.90;;;;;;5051418;28;20025;-78
2021/07/05 09:31:57;;;;;;;11.50;8.43;;;24.70;99.90;;;;;;5051503;28;20045;-77
2021/07/05 09:34:32;;;;;;;14.88;9.85;;;24.80;99.90;;;;;;5052545;28;20490;-78
2021/07/05 09:37:22;;;;;;;12.85;9.38;;;24.80;99.90;;;;;;5052832;28;20024;-78
2021/07/05 09:40:03;;;;;;;10.50;8.40;;;24.90;99.90;;;;;;5051964;28;20043;-78
2021/07/05 09:42:33;;;;;;;16.03;8.93;;;25.00;99.90;;;;;;5051530;28;20729;-78
2021/07/05 09:45:00;;;;;;;12.43;8.98;;;25.10;99.90;;;;;;5051013;28;20259;-77
2021/07/05 09:47:27;;;;;;;12.45;9.13;;;25.10;99.90;;;;;;5052138;28;20037;-77
2021/07/05 09:50:07;;;;;;;13.70;9.00;;;25.10;99.90;;;;;;5052484;28;20025;-77
2021/07/05 09:52:32;;;;;;;12.48;9.40;;;25.10;99.90;;;;;;5057451;28;20045;-77
2021/07/05 09:55:06;;;;;;;13.02;9.82;;;25.10;99.90;;;;;;5050811;28;20074;-77
2021/07/05 09:57:51;;;;;;;12.70;8.40;;;25.20;99.90;;;;;;5052352;28;20028;-77
2021/07/05 10:00:22;;;;;;;12.93;9.23;;;25.30;99.90;;;;;;5046974;28;20025;-78
2021/07/05 10:03:06;;;;;;;12.73;9.85;;;25.40;99.90;;;;;;5052219;28;20040;-77
2021/07/05 10:05:35;;;;;;;14.98;9.52;;;25.50;99.90;;;;;;5048308;28;20043;-78
2021/07/05 10:08:06;;;;;;;12.50;9.45;;;25.60;99.90;;;;;;5052099;28;20083;-78
2021/07/05 10:10:33;;;;;;;12.82;9.25;;;25.70;99.90;;;;;;5044843;28;20021;-78
2021/07/05 10:13:02;;;;;;;9.57;7.78;;;25.70;99.90;;;;;;5052627;28;20021;-78
2021/07/05 10:15:29;;;;;;;10.48;8.50;;;25.80;99.90;;;;;;5051920;28;20032;-77
2021/07/05 10:17:55;;;;;;;12.10;8.65;;;25.70;99.90;;;;;;5052293;28;20036;-77
2021/07/05 10:20:32;;;;;;;14.32;9.20;;;25.70;99.90;;;;;;5052540;28;20025;-78
2021/07/05 10:23:01;;;;;;;9.57;7.82;;;25.60;99.90;;;;;;5052139;28;20036;-78
2021/07/05 10:25:29;;;;;;;11.52;7.45;;;25.60;99.90;;;;;;5052218;28;20123;-77
2021/07/05 10:27:55;;;;;;;8.73;7.63;;;25.60;99.90;;;;;;5051920;28;20021;-77
2021/07/05 10:30:22;;;;;;;7.85;6.40;;;25.70;99.90;;;;;;5050292;28;20434;-77
2021/07/05 10:32:48;;;;;;;7.80;7.00;;;25.80;99.90;;;;;;5052008;28;20074;-78
2021/07/05 10:35:20;;;;;;;11.20;7.95;;;25.80;99.90;;;;;;5051777;28;20104;-78
2021/07/05 10:37:57;;;;;;;10.88;7.22;;;25.90;99.90;;;;;;5050644;28;20119;-78
2021/07/05 10:40:40;;;;;;;8.02;7.20;;;26.00;99.90;;;;;;5051568;28;20036;-78
2021/07/05 10:43:14;;;;;;;9.52;7.63;;;26.10;99.90;;;;;;5048433;28;20047;-78
2021/07/05 10:45:42;;;;;;;9.05;7.13;;;26.00;99.90;;;;;;5050435;28;20029;-78
2021/07/05 10:48:14;;;;;;;10.43;7.75;;;26.00;99.90;;;;;;5051339;28;20032;-78
2021/07/05 10:50:44;;;;;;;12.20;8.07;;;26.10;99.90;;;;;;5052008;28;20049;-78
2021/07/05 10:53:12;;;;;;;12.30;8.38;;;26.20;99.90;;;;;;5050210;28;20407;-78
2021/07/05 10:55:50;;;;;;;11.52;8.25;;;26.30;99.90;;;;;;5050691;28;20037;-78
2021/07/05 10:58:29;;;;;;;11.15;9.00;;;26.40;99.90;;;;;;5051301;28;20040;-78
2021/07/05 11:00:57;;;;;;;14.63;10.80;;;26.30;98.90;;;;;;5050045;28;20036;-78
2021/07/05 11:03:41;;;;;;;12.88;10.13;;;26.40;99.10;;;;;;5053184;28;20368;-78
2021/07/05 11:06:13;;;;;;;11.60;9.00;;;26.30;98.70;;;;;;5049698;28;20048;-77
2021/07/05 11:08:39;;;;;;;15.32;9.13;;;26.40;99.20;;;;;;5051472;28;20029;-77
2021/07/05 11:11:26;;;;;;;11.77;8.73;;;26.60;99.90;;;;;;5051087;28;20027;-77
2021/07/05 11:14:17;;;;;;;13.75;8.32;;;26.60;99.00;;;;;;5054159;28;20080;-77
2021/07/05 11:17:08;;;;;;;13.20;8.53;;;26.70;99.70;;;;;;5057755;28;20029;-78
2021/07/05 11:19:47;;;;;;;11.15;8.52;;;26.80;99.50;;;;;;5053591;28;20741;-78
2021/07/05 11:22:34;;;;;;;12.93;8.68;;;26.80;99.00;;;;;;5055860;28;20033;-78
2021/07/05 11:25:17;;;;;;;9.02;6.78;;;26.90;98.70;;;;;;5054871;28;20033;-78
2021/07/05 11:27:52;;;;;;;11.73;8.30;;;27.00;99.50;;;;;;5053685;28;20130;-78
2021/07/05 11:30:34;;;;;;;10.18;8.15;;;27.00;97.20;;;;;;5055687;28;20024;-77
2021/07/05 11:33:12;;;;;;;7.35;6.50;;;27.10;98.00;;;;;;5056253;28;20021;-77
2021/07/05 11:35:43;;;;;;;8.68;7.38;;;27.20;97.40;;;;;;5056213;28;20132;-77
2021/07/05 11:38:30;;;;;;;6.97;6.28;;;27.30;96.90;;;;;;5053707;28;20395;-77
2021/07/05 11:41:05;;;;;;;4.95;4.55;;;27.40;97.40;;;;;;5048514;28;20029;-77
2021/07/05 11:44:02;;;;;;;5.07;4.57;;;27.50;95.90;;;;;;5055025;28;20471;-77
2021/07/05 11:46:28;;;;;;;5.55;4.47;;;27.70;95.10;;;;;;5053016;28;20059;-77
2021/07/05 11:48:55;;;;;;;5.22;4.22;;;27.80;92.50;;;;;;5054596;28;20609;-77
2021/07/05 11:51:36;;;;;;;3.60;3.30;;;27.90;92.60;;;;;;5053037;28;20033;-77
2021/07/05 11:54:35;;;;;;;3.88;3.55;;;27.90;92.20;;;;;;5052354;28;20037;-77
2021/07/05 11:57:04;;;;;;;3.00;2.78;;;28.10;90.80;;;;;;5052108;28;20368;-77
2021/07/05 11:59:35;;;;;;;2.58;2.38;;;28.20;90.00;;;;;;5052896;28;20116;-77
2021/07/05 12:02:06;;;;;;;3.05;2.63;;;28.20;90.00;;;;;;5049410;28;20053;-77
2021/07/05 12:04:38;;;;;;;2.20;2.10;;;28.20;83.50;;;;;;5054789;28;20383;-77
2021/07/05 12:07:07;;;;;;;2.00;1.90;;;28.40;88.20;;;;;;5056067;28;20116;-78
2021/07/05 12:09:34;;;;;;;2.13;2.03;;;28.60;84.80;;;;;;5052651;28;20104;-77
2021/07/05 12:12:30;;;;;;;1.50;1.40;;;28.60;81.20;;;;;;5054376;28;20108;-77
2021/07/05 12:14:57;;;;;;;1.20;1.20;;;28.60;77.60;;;;;;5040750;28;20372;-77
2021/07/05 12:17:23;;;;;;;1.13;1.13;;;28.60;79.80;;;;;;5054140;28;20021;-77
2021/07/05 12:19:52;;;;;;;7.03;0.77;;;28.80;76.80;;;;;;5053929;28;20037;-77
2021/07/05 12:22:26;;;;;;;1.05;0.70;;;28.70;67.90;;;;;;5052850;28;20036;-77
2021/07/05 12:24:59;;;;;;;0.80;0.80;;;28.80;70.50;;;;;;5051889;28;20029;-77
2021/07/05 12:27:31;;;;;;;2.65;0.60;;;28.90;65.00;;;;;;5053960;28;20044;-77
2021/07/05 12:30:00;;;;;;;0.20;0.20;;;29.10;65.10;;;;;;5053529;28;20421;-76
2021/07/05 12:32:34;;;;;;;0.30;0.30;;;29.10;57.60;;;;;;5052372;28;20033;-77
2021/07/05 12:35:00;;;;;;;0.57;0.57;;;29.10;59.60;;;;;;5052124;28;20437;-77
2021/07/05 12:37:47;;;;;;;0.60;0.60;;;29.40;62.70;;;;;;5052943;28;20028;-76
2021/07/05 12:40:18;;;;;;;0.88;0.88;;;29.50;64.10;;;;;;5053655;28;20479;-77
2021/07/05 12:42:55;;;;;;;1.08;0.98;;;29.60;61.60;;;;;;5053034;28;20029;-77
2021/07/05 12:45:33;;;;;;;1.33;1.33;;;29.70;64.00;;;;;;5053320;28;20032;-77
2021/07/05 12:48:14;;;;;;;1.30;1.20;;;29.80;66.80;;;;;;5051489;28;20597;-77
2021/07/05 12:50:53;;;;;;;4.27;1.30;;;29.80;63.60;;;;;;5055324;28;20021;-76
2021/07/05 12:53:28;;;;;;;2.20;1.10;;;29.90;64.50;;;;;;5053429;28;20048;-76